createdAt,value
2022-10-17T00:00:19.122Z,16.58
2022-10-17T00:00:51.231Z,13.07
2022-10-17T00:01:23.396Z,16.08
2022-10-17T00:01:58.128Z,17.67
2022-10-17T00:02:30.299Z,13.80
2022-10-17T00:03:02.412Z,21.52
2022-10-17T00:03:40.679Z,23.88
2022-10-17T00:04:12.883Z,11.23
2022-10-17T00:04:45.095Z,29.00
2022-10-17T00:05:17.483Z,25.35
2022-10-17T00:05:52.328Z,22.75
2022-10-17T00:06:24.462Z,23.20
2022-10-17T00:06:56.567Z,21.17
2022-10-17T00:07:28.952Z,24.20
2022-10-17T00:08:04.026Z,17.95
2022-10-17T00:08:36.249Z,17.92
2022-10-17T00:09:09.720Z,28.00
2022-10-17T00:09:45.859Z,24.17
2022-10-17T00:10:18.218Z,13.73
2022-10-17T00:10:57.631Z,15.98
2022-10-17T00:11:32.307Z,18.52
2022-10-17T00:12:05.220Z,20.50
2022-10-17T00:12:37.394Z,19.92
2022-10-17T00:13:13.314Z,18.95
2022-10-17T00:13:45.545Z,20.25
2022-10-17T00:14:17.791Z,15.55
2022-10-17T00:14:52.502Z,12.85
2022-10-17T00:15:24.617Z,15.30
2022-10-17T00:15:56.782Z,16.30
2022-10-17T00:16:37.009Z,25.80
2022-10-17T00:17:09.091Z,27.73
2022-10-17T00:17:42.109Z,17.83
2022-10-17T00:18:16.920Z,13.15
2022-10-17T00:18:51.655Z,16.52
2022-10-17T00:19:23.752Z,22.23
2022-10-17T00:19:55.909Z,18.08
2022-10-17T00:20:32.938Z,28.02
2022-10-17T00:21:05.382Z,22.65
2022-10-17T00:21:37.527Z,25.75
2022-10-17T00:22:12.221Z,29.45
2022-10-17T00:22:44.356Z,17.30
2022-10-17T00:23:16.522Z,17.27
2022-10-17T00:23:51.805Z,15.75
2022-10-17T00:24:23.913Z,20.60
2022-10-17T00:24:56.092Z,18.08
2022-10-17T00:25:30.820Z,21.52
2022-10-17T00:26:05.559Z,27.08
2022-10-17T00:26:37.779Z,28.73
2022-10-17T00:27:12.837Z,17.55
2022-10-17T00:27:45.291Z,20.10
2022-10-17T00:28:19.147Z,15.13
2022-10-17T00:28:55.403Z,28.90
2022-10-17T00:29:27.559Z,23.80
2022-10-17T00:29:59.976Z,15.25
2022-10-17T00:30:34.655Z,12.38
2022-10-17T00:31:08.142Z,12.32
2022-10-17T00:31:40.503Z,17.38
2022-10-17T00:32:15.211Z,14.07
2022-10-17T00:32:47.339Z,39.83
2022-10-17T00:33:19.437Z,21.83
2022-10-17T00:33:56.718Z,25.40
2022-10-17T00:34:30.243Z,18.02
2022-10-17T00:35:02.559Z,18.73
2022-10-17T00:35:37.217Z,17.38
2022-10-17T00:36:12.809Z,33.90
2022-10-17T00:36:47.536Z,38.78
2022-10-17T00:37:19.608Z,20.95
2022-10-17T00:37:51.731Z,15.05
2022-10-17T00:38:26.386Z,19.38
2022-10-17T00:38:59.970Z,16.13
2022-10-17T00:39:32.144Z,14.55
2022-10-17T00:40:07.968Z,12.48
2022-10-17T00:40:40.066Z,25.35
2022-10-17T00:41:15.243Z,28.83
2022-10-17T00:41:52.313Z,17.20
2022-10-17T00:42:26.060Z,16.35
2022-10-17T00:42:58.409Z,21.33
2022-10-17T00:43:34.556Z,25.30
2022-10-17T00:44:08.390Z,21.58
2022-10-17T00:45:03.114Z,19.10
2022-10-17T00:45:37.849Z,41.38
2022-10-17T00:46:09.951Z,11.95
2022-10-17T00:46:42.048Z,16.20
2022-10-17T00:47:18.617Z,30.17
2022-10-17T00:47:58.641Z,16.13
2022-10-17T00:48:30.737Z,21.05
2022-10-17T00:49:08.612Z,14.25
2022-10-17T00:49:43.843Z,16.02
2022-10-17T00:50:16.794Z,14.57
2022-10-17T00:50:50.321Z,20.08
2022-10-17T00:51:33.041Z,21.83
2022-10-17T00:52:08.545Z,13.18
2022-10-17T00:52:41.723Z,23.33
2022-10-17T00:53:16.881Z,22.08
2022-10-17T00:53:51.887Z,12.10
2022-10-17T00:54:28.736Z,20.27
2022-10-17T00:55:11.837Z,14.35
2022-10-17T00:55:49.792Z,13.45
2022-10-17T00:56:22.066Z,23.80
2022-10-17T00:56:58.017Z,19.70
2022-10-17T00:57:32.868Z,24.33
2022-10-17T00:58:06.779Z,14.88
2022-10-17T00:58:41.697Z,14.23
2022-10-17T00:59:16.721Z,19.13
2022-10-17T00:59:52.984Z,11.65
2022-10-17T01:00:27.819Z,18.27
2022-10-17T01:01:00.675Z,21.45
2022-10-17T01:01:33.001Z,18.38
2022-10-17T01:02:07.942Z,17.05
2022-10-17T01:02:42.695Z,12.48
2022-10-17T01:03:14.951Z,16.10
2022-10-17T01:03:47.354Z,11.02
2022-10-17T01:04:24.642Z,25.67
2022-10-17T01:04:59.670Z,12.75
2022-10-17T01:05:31.826Z,14.85
2022-10-17T01:06:06.796Z,15.20
2022-10-17T01:06:38.907Z,26.88
2022-10-17T01:07:11.691Z,19.50
2022-10-17T01:07:48.162Z,18.92
2022-10-17T01:08:21.253Z,29.08
2022-10-17T01:08:56.073Z,12.38
2022-10-17T01:09:28.304Z,25.83
2022-10-17T01:10:00.703Z,27.60
2022-10-17T01:10:42.537Z,29.00
2022-10-17T01:11:27.711Z,14.68
2022-10-17T01:12:07.694Z,25.30
2022-10-17T01:12:53.435Z,12.65
2022-10-17T01:13:32.188Z,22.23
2022-10-17T01:14:10.302Z,15.65
2022-10-17T01:14:56.534Z,17.25
2022-10-17T01:15:39.856Z,12.40
2022-10-17T01:16:19.328Z,15.32
2022-10-17T01:17:00.723Z,16.20
2022-10-17T01:17:39.404Z,23.67
2022-10-17T01:18:24.487Z,16.20
2022-10-17T01:19:04.812Z,15.95
2022-10-17T01:21:02.740Z,16.08
2022-10-17T01:21:54.262Z,22.63
2022-10-17T01:22:35.352Z,15.52
2022-10-17T01:23:27.110Z,20.55
2022-10-17T01:24:51.911Z,22.05
2022-10-17T01:25:30.257Z,15.07
2022-10-17T01:26:09.806Z,21.67
2022-10-17T01:27:02.058Z,23.15
2022-10-17T01:27:57.139Z,15.35
2022-10-17T01:28:59.431Z,17.00
2022-10-17T01:29:45.974Z,17.65
2022-10-17T01:30:55.032Z,35.95
2022-10-17T01:31:34.311Z,29.83
2022-10-17T01:32:14.223Z,18.58
2022-10-17T01:32:53.657Z,16.00
2022-10-17T01:33:34.714Z,23.15
2022-10-17T01:34:17.467Z,14.93
2022-10-17T01:34:58.322Z,17.27
2022-10-17T01:35:38.096Z,25.50
2022-10-17T01:36:18.233Z,20.70
2022-10-17T01:36:56.972Z,28.02
2022-10-17T01:37:35.966Z,12.15
2022-10-17T01:38:13.979Z,11.68
2022-10-17T01:38:52.160Z,11.13
2022-10-17T01:39:38.699Z,28.95
2022-10-17T01:40:17.882Z,14.93
2022-10-17T01:40:54.070Z,18.63
2022-10-17T01:41:40.300Z,26.33
2022-10-17T01:42:17.458Z,13.30
2022-10-17T01:42:57.229Z,16.08
2022-10-17T01:43:39.699Z,17.17
2022-10-17T01:44:15.579Z,15.70
2022-10-17T01:44:56.204Z,21.08
2022-10-17T01:45:34.121Z,20.02
2022-10-17T01:46:13.199Z,16.98
2022-10-17T01:46:53.197Z,16.30
2022-10-17T01:47:29.372Z,24.52
2022-10-17T01:48:07.494Z,14.30
2022-10-17T01:48:46.051Z,14.55
2022-10-17T01:49:22.933Z,12.20
2022-10-17T01:49:59.625Z,19.63
2022-10-17T01:50:39.046Z,16.77
2022-10-17T01:51:17.018Z,18.10
2022-10-17T01:51:54.975Z,16.02
2022-10-17T01:52:35.062Z,17.95
2022-10-17T01:53:12.674Z,21.38
2022-10-17T01:53:53.282Z,10.07
2022-10-17T01:54:33.647Z,13.02
2022-10-17T01:55:44.532Z,12.82
2022-10-17T01:56:21.263Z,13.63
2022-10-17T01:56:58.513Z,11.65
2022-10-17T01:57:36.145Z,17.17
2022-10-17T01:58:15.753Z,22.23
2022-10-17T01:59:27.302Z,26.45
2022-10-17T02:00:03.673Z,22.65
2022-10-17T02:00:46.992Z,10.32
2022-10-17T02:01:21.136Z,12.23
2022-10-17T02:02:00.935Z,13.00
2022-10-17T02:02:35.029Z,16.08
2022-10-17T02:03:10.968Z,11.43
2022-10-17T02:03:48.039Z,11.90
2022-10-17T02:04:21.203Z,14.65
2022-10-17T02:04:55.637Z,23.90
2022-10-17T02:05:35.204Z,21.73
2022-10-17T02:06:07.412Z,13.18
2022-10-17T02:06:40.446Z,15.90
2022-10-17T02:07:19.191Z,13.85
2022-10-17T02:07:51.945Z,11.35
2022-10-17T02:08:28.288Z,21.50
2022-10-17T02:09:04.087Z,15.60
2022-10-17T02:09:36.347Z,16.50
2022-10-17T02:10:16.360Z,17.05
2022-10-17T02:10:57.033Z,14.50
2022-10-17T02:11:29.258Z,13.48
2022-10-17T02:12:27.759Z,13.90
2022-10-17T02:13:09.457Z,14.27
2022-10-17T02:13:52.666Z,25.73
2022-10-17T02:14:37.424Z,17.83
2022-10-17T02:15:31.320Z,24.33
2022-10-17T02:16:16.693Z,16.10
2022-10-17T02:16:58.997Z,16.10
2022-10-17T02:17:45.169Z,20.70
2022-10-17T02:18:30.599Z,13.32
2022-10-17T02:19:27.575Z,14.60
2022-10-17T02:20:09.614Z,25.77
2022-10-17T02:20:53.411Z,9.90
2022-10-17T02:21:34.949Z,18.45
2022-10-17T02:22:25.241Z,28.02
2022-10-17T02:23:05.651Z,21.52
2022-10-17T02:24:20.736Z,15.13
2022-10-17T02:25:01.962Z,12.77
2022-10-17T02:25:42.236Z,17.75
2022-10-17T02:26:21.107Z,17.08
2022-10-17T02:26:59.507Z,22.88
2022-10-17T02:27:43.835Z,18.38
2022-10-17T02:28:24.014Z,14.15
2022-10-17T02:29:06.522Z,16.65
2022-10-17T02:29:48.046Z,23.00
2022-10-17T02:30:32.498Z,22.33
2022-10-17T02:31:09.193Z,15.93
2022-10-17T02:31:46.790Z,12.63
2022-10-17T02:32:27.652Z,20.38
2022-10-17T02:33:07.766Z,17.50
2022-10-17T02:33:47.209Z,24.45
2022-10-17T02:34:26.582Z,17.05
2022-10-17T02:35:02.521Z,21.50
2022-10-17T02:35:40.411Z,15.38
2022-10-17T02:36:20.039Z,21.80
2022-10-17T02:36:54.154Z,23.55
2022-10-17T02:37:30.933Z,37.22
2022-10-17T02:38:07.944Z,24.42
2022-10-17T02:38:42.423Z,11.90
2022-10-17T02:39:17.020Z,12.27
2022-10-17T02:39:53.843Z,9.18
2022-10-17T02:40:29.412Z,25.65
2022-10-17T02:41:03.943Z,18.25
2022-10-17T02:41:39.967Z,32.33
2022-10-17T02:42:14.366Z,23.02
2022-10-17T02:42:46.986Z,12.43
2022-10-17T02:43:23.250Z,19.50
2022-10-17T02:44:00.201Z,11.77
2022-10-17T02:44:35.547Z,15.13
2022-10-17T02:45:11.802Z,18.60
2022-10-17T02:45:44.142Z,15.95
2022-10-17T02:46:21.359Z,18.50
2022-10-17T02:47:02.198Z,17.02
2022-10-17T02:47:40.874Z,16.88
2022-10-17T02:48:23.022Z,13.38
2022-10-17T02:49:04.108Z,30.67
2022-10-17T02:49:40.934Z,21.45
2022-10-17T02:50:13.106Z,11.20
2022-10-17T02:50:59.618Z,29.38
2022-10-17T02:51:42.447Z,27.30
2022-10-17T02:52:20.638Z,11.43
2022-10-17T02:52:57.427Z,27.10
2022-10-17T02:53:37.373Z,22.80
2022-10-17T02:54:20.115Z,15.55
2022-10-17T02:54:58.389Z,13.02
2022-10-17T02:55:33.570Z,22.08
2022-10-17T02:56:17.234Z,11.45
2022-10-17T02:56:55.038Z,17.27
2022-10-17T02:57:31.286Z,19.00
2022-10-17T02:58:10.058Z,15.60
2022-10-17T02:58:46.436Z,24.60
2022-10-17T02:59:21.981Z,15.15
2022-10-17T02:59:58.250Z,26.42
2022-10-17T03:00:32.997Z,34.67
2022-10-17T03:01:06.226Z,22.58
2022-10-17T03:01:41.240Z,23.48
2022-10-17T03:02:13.399Z,20.98
2022-10-17T03:02:48.438Z,23.42
2022-10-17T03:03:28.374Z,26.45
2022-10-17T03:04:06.387Z,22.15
2022-10-17T03:04:38.513Z,29.45
2022-10-17T03:05:15.382Z,27.95
2022-10-17T03:05:47.501Z,22.73
2022-10-17T03:06:19.622Z,25.10
2022-10-17T03:06:54.345Z,24.70
2022-10-17T03:07:26.441Z,51.22
2022-10-17T03:07:58.524Z,23.15
2022-10-17T03:08:33.268Z,17.55
2022-10-17T03:09:06.741Z,86.32
2022-10-17T03:09:38.901Z,16.23
2022-10-17T03:10:13.763Z,22.13
2022-10-17T03:10:45.910Z,98.47
2022-10-17T03:11:18.541Z,33.20
2022-10-17T03:11:53.731Z,23.13
2022-10-17T03:12:25.888Z,81.95
2022-10-17T03:12:58.625Z,14.82
2022-10-17T03:13:36.237Z,41.25
2022-10-17T03:14:45.792Z,22.40
2022-10-17T03:15:18.017Z,22.02
2022-10-17T03:15:50.298Z,46.67
2022-10-17T03:16:25.258Z,44.45
2022-10-17T03:16:57.424Z,36.42
2022-10-17T03:17:30.651Z,41.92
2022-10-17T03:18:02.861Z,45.88
2022-10-17T03:18:40.699Z,57.53
2022-10-17T03:19:13.280Z,27.40
2022-10-17T03:19:45.402Z,56.63
2022-10-17T03:20:20.306Z,56.53
2022-10-17T03:20:52.523Z,26.60
2022-10-17T03:21:25.298Z,21.48
2022-10-17T03:22:00.220Z,15.52
2022-10-17T03:22:32.723Z,16.98
2022-10-17T03:23:07.420Z,19.73
2022-10-17T03:23:42.597Z,31.35
2022-10-17T03:24:14.976Z,40.88
2022-10-17T03:24:47.045Z,54.45
2022-10-17T03:25:22.439Z,56.75
2022-10-17T03:25:54.758Z,34.95
2022-10-17T03:26:27.670Z,37.03
2022-10-17T03:27:02.369Z,60.85
2022-10-17T03:27:34.572Z,46.72
2022-10-17T03:28:07.089Z,49.85
2022-10-17T03:28:41.878Z,46.65
2022-10-17T03:29:14.166Z,53.03
2022-10-17T03:29:46.348Z,42.17
2022-10-17T03:30:23.149Z,47.85
2022-10-17T03:30:56.611Z,45.25
2022-10-17T03:31:28.732Z,54.08
2022-10-17T03:32:04.296Z,49.33
2022-10-17T03:32:36.583Z,43.95
2022-10-17T03:33:08.972Z,55.17
2022-10-17T03:33:47.005Z,38.83
2022-10-17T03:34:19.456Z,37.83
2022-10-17T03:34:54.257Z,36.45
2022-10-17T03:35:26.960Z,59.65
2022-10-17T03:35:59.176Z,33.53
2022-10-17T03:36:33.918Z,32.80
2022-10-17T03:37:07.122Z,32.95
2022-10-17T03:37:40.704Z,65.53
2022-10-17T03:38:15.579Z,38.03
2022-10-17T03:38:48.162Z,38.50
2022-10-17T03:39:22.200Z,46.13
2022-10-17T03:39:56.906Z,25.02
2022-10-17T03:40:29.216Z,26.65
2022-10-17T03:41:01.335Z,23.10
2022-10-17T03:41:36.221Z,31.02
2022-10-17T03:42:08.298Z,22.83
2022-10-17T03:42:40.613Z,32.47
2022-10-17T03:43:15.523Z,21.45
2022-10-17T03:43:47.674Z,39.45
2022-10-17T03:44:19.810Z,42.92
2022-10-17T03:44:54.531Z,26.77
2022-10-17T03:45:27.379Z,41.28
2022-10-17T03:46:01.013Z,43.95
2022-10-17T03:46:36.458Z,34.03
2022-10-17T03:47:11.912Z,34.28
2022-10-17T03:47:46.251Z,34.20
2022-10-17T03:48:21.046Z,47.60
2022-10-17T03:48:56.015Z,33.03
2022-10-17T03:49:28.170Z,25.75
2022-10-17T03:50:02.883Z,40.92
2022-10-17T03:50:37.763Z,33.00
2022-10-17T03:51:10.747Z,24.48
2022-10-17T03:51:51.355Z,29.60
2022-10-17T03:52:24.636Z,44.42
2022-10-17T03:52:56.778Z,22.88
2022-10-17T03:53:31.620Z,47.80
2022-10-17T03:54:04.140Z,28.42
2022-10-17T03:54:36.228Z,25.17
2022-10-17T03:55:11.358Z,31.10
2022-10-17T03:55:44.340Z,43.92
2022-10-17T03:56:18.007Z,28.80
2022-10-17T03:57:49.443Z,50.78
2022-10-17T03:58:24.246Z,45.40
2022-10-17T03:59:00.918Z,29.60
2022-10-17T03:59:34.825Z,35.95
2022-10-17T04:00:13.438Z,87.90
2022-10-17T04:00:58.016Z,65.45
2022-10-17T04:01:30.263Z,53.10
2022-10-17T04:02:02.509Z,30.77
2022-10-17T04:02:37.240Z,35.42
2022-10-17T04:03:12.583Z,54.60
2022-10-17T04:03:51.293Z,31.10
2022-10-17T04:04:29.138Z,41.83
2022-10-17T04:05:01.406Z,28.88
2022-10-17T04:05:33.586Z,19.98
2022-10-17T04:06:06.884Z,20.88
2022-10-17T04:06:43.567Z,17.83
2022-10-17T04:07:16.349Z,18.27
2022-10-17T04:07:50.842Z,18.20
2022-10-17T04:08:31.301Z,14.32
2022-10-17T04:09:17.285Z,20.58
2022-10-17T04:10:00.764Z,30.05
2022-10-17T04:10:32.848Z,17.63
2022-10-17T04:11:07.130Z,15.48
2022-10-17T04:11:41.967Z,23.30
2022-10-17T04:12:14.115Z,22.33
2022-10-17T04:12:46.225Z,35.83
2022-10-17T04:13:20.957Z,18.25
2022-10-17T04:13:54.530Z,34.17
2022-10-17T04:14:26.926Z,19.13
2022-10-17T04:15:01.926Z,18.05
2022-10-17T04:15:34.371Z,10.73
2022-10-17T04:16:10.578Z,29.58
2022-10-17T04:16:49.845Z,26.90
2022-10-17T04:17:25.510Z,21.30
2022-10-17T04:18:01.022Z,16.65
2022-10-17T04:18:33.606Z,33.40
2022-10-17T04:19:05.716Z,14.90
2022-10-17T04:19:49.590Z,18.95
2022-10-17T04:20:23.049Z,16.30
2022-10-17T04:20:55.247Z,23.23
2022-10-17T04:21:29.393Z,21.05
2022-10-17T04:22:08.593Z,14.30
2022-10-17T04:22:44.817Z,13.65
2022-10-17T04:23:17.985Z,17.75
2022-10-17T04:23:56.591Z,21.20
2022-10-17T04:24:44.896Z,16.65
2022-10-17T04:25:34.671Z,24.00
2022-10-17T04:26:08.819Z,39.63
2022-10-17T04:26:40.930Z,54.22
2022-10-17T04:27:15.726Z,48.03
2022-10-17T04:27:50.785Z,44.03
2022-10-17T04:28:23.137Z,36.70
2022-10-17T04:28:57.911Z,37.22
2022-10-17T04:29:30.030Z,36.50
2022-10-17T04:30:14.194Z,20.55
2022-10-17T04:30:48.971Z,19.20
2022-10-17T04:31:22.246Z,23.25
2022-10-17T04:33:10.574Z,27.17
2022-10-17T04:33:45.484Z,25.73
2022-10-17T04:34:17.747Z,26.42
2022-10-17T04:34:52.530Z,31.33
2022-10-17T04:35:29.690Z,51.53
2022-10-17T04:36:41.316Z,13.38
2022-10-17T04:37:16.325Z,25.98
2022-10-17T04:37:50.446Z,22.02
2022-10-17T04:38:27.740Z,20.02
2022-10-17T04:39:06.026Z,19.88
2022-10-17T04:39:38.243Z,30.10
2022-10-17T04:40:11.594Z,17.63
2022-10-17T04:40:46.477Z,14.73
2022-10-17T04:41:19.594Z,18.20
2022-10-17T04:41:51.794Z,32.58
2022-10-17T04:42:26.676Z,27.17
2022-10-17T04:42:59.634Z,21.23
2022-10-17T04:43:40.133Z,14.18
2022-10-17T04:44:15.331Z,26.23
2022-10-17T04:44:53.226Z,22.65
2022-10-17T04:45:25.403Z,36.90
2022-10-17T04:46:05.766Z,29.17
2022-10-17T04:46:40.487Z,18.25
2022-10-17T04:47:12.671Z,16.83
2022-10-17T04:47:44.791Z,18.30
2022-10-17T04:48:19.617Z,17.95
2022-10-17T04:48:51.730Z,19.30
2022-10-17T04:49:23.875Z,39.25
2022-10-17T04:50:04.167Z,14.40
2022-10-17T04:50:38.610Z,16.50
2022-10-17T04:51:28.093Z,22.42
2022-10-17T04:52:23.409Z,24.30
2022-10-17T04:52:58.366Z,23.77
2022-10-17T04:53:31.990Z,37.35
2022-10-17T04:54:07.002Z,37.45
2022-10-17T04:54:40.020Z,23.83
2022-10-17T04:55:17.356Z,13.00
2022-10-17T04:55:49.543Z,27.20
2022-10-17T04:56:24.745Z,17.95
2022-10-17T04:56:59.423Z,23.60
2022-10-17T04:57:35.010Z,12.23
2022-10-17T04:58:16.827Z,30.42
2022-10-17T04:58:49.522Z,16.10
2022-10-17T04:59:21.712Z,26.67
2022-10-17T05:00:02.354Z,23.23
2022-10-17T05:00:54.645Z,25.58
2022-10-17T05:01:33.603Z,23.98
2022-10-17T05:02:05.902Z,29.73
2022-10-17T05:02:39.282Z,36.58
2022-10-17T05:03:14.380Z,18.05
2022-10-17T05:03:47.143Z,19.27
2022-10-17T05:04:22.365Z,22.30
2022-10-17T05:04:59.485Z,19.45
2022-10-17T05:05:34.235Z,13.98
2022-10-17T05:06:12.407Z,18.15
2022-10-17T05:06:44.817Z,29.10
2022-10-17T05:07:48.498Z,27.35
2022-10-17T05:08:25.498Z,47.70
2022-10-17T05:08:58.347Z,21.88
2022-10-17T05:09:31.255Z,23.45
2022-10-17T05:10:06.378Z,15.88
2022-10-17T05:10:39.971Z,25.80
2022-10-17T05:11:18.080Z,31.10
2022-10-17T05:11:53.066Z,17.33
2022-10-17T05:12:25.350Z,17.42
2022-10-17T05:12:58.852Z,27.52
2022-10-17T05:13:37.540Z,18.00
2022-10-17T05:14:10.346Z,13.73
2022-10-17T05:14:43.158Z,18.45
2022-10-17T05:15:18.066Z,23.20
2022-10-17T05:15:50.524Z,14.52
2022-10-17T05:16:23.883Z,24.73
2022-10-17T05:16:58.850Z,59.80
2022-10-17T05:17:31.180Z,53.40
2022-10-17T05:18:03.829Z,42.22
2022-10-17T05:18:38.559Z,18.02
2022-10-17T05:19:12.140Z,28.58
2022-10-17T05:19:49.895Z,18.02
2022-10-17T05:20:25.887Z,18.15
2022-10-17T05:21:00.770Z,47.47
2022-10-17T05:21:37.493Z,37.42
2022-10-17T05:22:10.416Z,30.60
2022-10-17T05:22:42.574Z,29.45
2022-10-17T05:23:19.079Z,48.88
2022-10-17T05:23:51.568Z,23.88
2022-10-17T05:24:23.681Z,29.67
2022-10-17T05:24:58.397Z,24.60
2022-10-17T05:25:30.548Z,22.15
2022-10-17T05:26:02.768Z,23.10
2022-10-17T05:26:37.851Z,22.52
2022-10-17T05:27:10.063Z,21.83
2022-10-17T05:27:42.641Z,45.85
2022-10-17T05:28:17.823Z,32.67
2022-10-17T05:28:52.595Z,27.27
2022-10-17T05:29:30.083Z,22.90
2022-10-17T05:30:10.985Z,20.00
2022-10-17T05:30:44.373Z,25.30
2022-10-17T05:31:19.104Z,18.83
2022-10-17T05:31:51.376Z,18.77
2022-10-17T05:32:24.535Z,17.33
2022-10-17T05:32:59.246Z,23.63
2022-10-17T05:33:31.398Z,22.85
2022-10-17T05:34:03.802Z,16.20
2022-10-17T05:34:40.909Z,16.30
2022-10-17T05:35:13.014Z,22.73
2022-10-17T05:35:45.102Z,21.88
2022-10-17T05:36:22.421Z,20.48
2022-10-17T05:36:54.513Z,17.95
2022-10-17T05:37:30.114Z,22.63
2022-10-17T05:38:05.011Z,17.92
2022-10-17T05:38:39.363Z,18.92
2022-10-17T05:39:13.554Z,67.68
2022-10-17T05:39:51.402Z,24.70
2022-10-17T05:40:24.243Z,35.22
2022-10-17T05:41:01.557Z,60.25
2022-10-17T05:41:33.721Z,43.58
2022-10-17T05:42:05.880Z,39.53
2022-10-17T05:42:41.474Z,56.55
2022-10-17T05:43:14.955Z,27.83
2022-10-17T05:43:50.885Z,56.63
2022-10-17T05:44:26.841Z,65.13
2022-10-17T05:45:02.005Z,38.67
2022-10-17T05:45:38.949Z,58.45
2022-10-17T05:46:13.966Z,62.03
2022-10-17T05:46:48.940Z,73.93
2022-10-17T05:47:23.803Z,23.02
2022-10-17T05:47:55.897Z,23.38
2022-10-17T05:48:28.201Z,41.15
2022-10-17T05:49:14.666Z,31.25
2022-10-17T05:49:55.500Z,28.63
2022-10-17T05:50:42.740Z,29.20
2022-10-17T05:51:22.564Z,30.98
2022-10-17T05:51:54.744Z,22.25
2022-10-17T05:52:29.654Z,32.20
2022-10-17T05:53:10.571Z,38.67
2022-10-17T05:53:52.416Z,22.52
2022-10-17T05:54:29.387Z,25.50
2022-10-17T05:55:01.543Z,41.25
2022-10-17T05:55:36.339Z,19.25
2022-10-17T05:56:10.570Z,17.75
2022-10-17T05:56:42.766Z,20.98
2022-10-17T05:57:17.572Z,16.65
2022-10-17T05:57:50.047Z,17.98
2022-10-17T05:58:45.389Z,14.02
2022-10-17T05:59:28.919Z,16.60
2022-10-17T06:00:10.502Z,31.30
2022-10-17T06:00:49.794Z,20.45
2022-10-17T06:01:21.953Z,21.77
2022-10-17T06:01:57.486Z,29.73
2022-10-17T06:02:30.000Z,20.42
2022-10-17T06:03:02.192Z,38.38
2022-10-17T06:03:37.365Z,24.63
2022-10-17T06:04:11.036Z,26.73
2022-10-17T06:04:46.108Z,24.65
2022-10-17T06:05:22.274Z,19.80
2022-10-17T06:05:55.442Z,25.20
2022-10-17T06:06:30.371Z,25.70
2022-10-17T06:07:05.137Z,15.95
2022-10-17T06:07:38.686Z,25.85
2022-10-17T06:08:11.711Z,24.63
2022-10-17T06:08:46.912Z,15.85
2022-10-17T06:09:24.597Z,33.55
2022-10-17T06:09:59.237Z,15.68
2022-10-17T06:10:33.982Z,17.88
2022-10-17T06:11:09.880Z,20.27
2022-10-17T06:11:42.778Z,21.13
2022-10-17T06:12:18.795Z,20.48
2022-10-17T06:12:51.746Z,22.65
2022-10-17T06:13:24.422Z,20.30
2022-10-17T06:14:00.255Z,22.45
2022-10-17T06:14:34.240Z,13.02
2022-10-17T06:15:09.433Z,21.98
2022-10-17T06:15:45.271Z,33.47
2022-10-17T06:16:17.441Z,19.20
2022-10-17T06:16:52.818Z,25.92
2022-10-17T06:17:25.150Z,18.38
2022-10-17T06:17:59.863Z,24.30
2022-10-17T06:18:32.144Z,28.27
2022-10-17T06:19:04.294Z,38.08
2022-10-17T06:19:41.365Z,32.53
2022-10-17T06:20:13.506Z,49.33
2022-10-17T06:20:48.234Z,73.07
2022-10-17T06:21:24.701Z,55.30
2022-10-17T06:22:04.304Z,74.03
2022-10-17T06:22:37.455Z,48.85
2022-10-17T06:23:13.803Z,35.45
2022-10-17T06:24:08.929Z,23.55
2022-10-17T06:24:42.804Z,32.25
2022-10-17T06:25:15.198Z,21.98
2022-10-17T06:25:49.985Z,24.10
2022-10-17T06:26:22.504Z,25.92
2022-10-17T06:26:54.703Z,17.83
2022-10-17T06:27:29.903Z,24.92
2022-10-17T06:28:02.206Z,33.45
2022-10-17T06:28:35.392Z,32.40
2022-10-17T06:29:10.219Z,28.55
2022-10-17T06:29:48.694Z,25.23
2022-10-17T06:30:24.578Z,37.13
2022-10-17T06:30:56.741Z,27.20
2022-10-17T06:31:29.006Z,37.92
2022-10-17T06:32:04.072Z,22.70
2022-10-17T06:32:37.470Z,17.10
2022-10-17T06:33:10.707Z,17.98
2022-10-17T06:33:45.549Z,19.35
2022-10-17T06:34:18.767Z,34.65
2022-10-17T06:34:51.297Z,17.90
2022-10-17T06:35:26.476Z,33.08
2022-10-17T06:35:58.708Z,49.35
2022-10-17T06:36:31.603Z,50.13
2022-10-17T06:37:09.118Z,42.78
2022-10-17T06:37:42.511Z,62.88
2022-10-17T06:38:17.470Z,47.03
2022-10-17T06:38:49.719Z,44.65
2022-10-17T06:39:42.056Z,60.40
2022-10-17T06:40:18.264Z,39.28
2022-10-17T06:40:51.045Z,42.58
2022-10-17T06:41:25.850Z,41.72
2022-10-17T06:41:59.741Z,37.80
2022-10-17T06:42:51.708Z,54.88
2022-10-17T06:43:50.161Z,46.40
2022-10-17T06:44:49.758Z,71.03
2022-10-17T06:45:28.533Z,57.83
2022-10-17T06:46:25.588Z,27.23
2022-10-17T06:47:04.025Z,58.53
2022-10-17T06:47:40.709Z,70.95
2022-10-17T06:48:30.502Z,63.67
2022-10-17T06:49:23.871Z,94.78
2022-10-17T06:50:00.570Z,87.78
2022-10-17T06:50:44.202Z,95.10
2022-10-17T06:51:37.612Z,89.32
2022-10-17T06:52:17.763Z,73.15
2022-10-17T06:53:19.187Z,61.05
2022-10-17T06:53:56.573Z,70.10
2022-10-17T06:54:36.898Z,87.07
2022-10-17T06:56:19.520Z,62.40
2022-10-17T06:57:27.003Z,64.25
2022-10-17T06:58:25.234Z,64.38
2022-10-17T06:59:18.492Z,63.60
2022-10-17T06:59:58.025Z,88.35
2022-10-17T07:00:36.648Z,77.88
2022-10-17T07:01:15.027Z,62.42
2022-10-17T07:01:48.552Z,67.93
2022-10-17T07:02:24.313Z,89.68
2022-10-17T07:02:57.876Z,110.25
2022-10-17T07:03:30.874Z,105.50
2022-10-17T07:04:06.454Z,54.75
2022-10-17T07:04:39.827Z,96.68
2022-10-17T07:05:12.246Z,77.47
2022-10-17T07:05:54.687Z,92.30
2022-10-17T07:06:28.097Z,81.13
2022-10-17T07:07:05.114Z,92.35
2022-10-17T07:07:44.234Z,103.30
2022-10-17T07:08:17.752Z,72.38
2022-10-17T07:08:52.554Z,70.18
2022-10-17T07:09:25.166Z,68.97
2022-10-17T07:09:59.965Z,87.35
2022-10-17T07:10:38.200Z,40.08
2022-10-17T07:11:13.798Z,70.40
2022-10-17T07:11:48.738Z,56.28
2022-10-17T07:12:24.369Z,91.95
2022-10-17T07:12:59.159Z,77.28
2022-10-17T07:13:34.413Z,79.07
2022-10-17T07:14:11.537Z,98.55
2022-10-17T07:14:43.691Z,89.00
2022-10-17T07:15:18.653Z,121.22
2022-10-17T07:15:50.850Z,106.57
2022-10-17T07:16:23.325Z,85.07
2022-10-17T07:17:06.546Z,87.97
2022-10-17T07:17:38.678Z,95.53
2022-10-17T07:18:10.927Z,106.00
2022-10-17T07:18:49.091Z,64.13
2022-10-17T07:19:22.131Z,102.05
2022-10-17T07:19:57.839Z,103.20
2022-10-17T07:20:30.615Z,72.70
2022-10-17T07:21:04.148Z,77.88
2022-10-17T07:21:39.464Z,62.90
2022-10-17T07:22:13.329Z,90.53
2022-10-17T07:22:53.932Z,100.72
2022-10-17T07:23:26.371Z,57.90
2022-10-17T07:23:58.991Z,58.78
2022-10-17T07:24:33.720Z,82.15
2022-10-17T07:25:14.851Z,60.17
2022-10-17T07:25:55.453Z,40.42
2022-10-17T07:26:27.640Z,93.28
2022-10-17T07:26:59.740Z,71.95
2022-10-17T07:27:34.442Z,58.25
2022-10-17T07:28:07.301Z,72.28
2022-10-17T07:28:43.112Z,60.00
2022-10-17T07:29:37.214Z,25.45
2022-10-17T07:30:22.642Z,36.70
2022-10-17T07:31:09.307Z,58.10
2022-10-17T07:31:42.018Z,113.75
2022-10-17T07:32:16.732Z,66.65
2022-10-17T07:32:49.071Z,70.82
2022-10-17T07:33:23.365Z,74.38
2022-10-17T07:33:58.067Z,90.45
2022-10-17T07:34:31.537Z,101.32
2022-10-17T07:35:07.749Z,60.65
2022-10-17T07:35:41.107Z,94.97
2022-10-17T07:36:13.987Z,31.42
2022-10-17T07:36:48.877Z,67.65
2022-10-17T07:37:21.077Z,68.55
2022-10-17T07:38:01.231Z,47.42
2022-10-17T07:38:36.372Z,50.00
2022-10-17T07:39:08.547Z,56.67
2022-10-17T07:39:42.212Z,51.22
2022-10-17T07:40:17.392Z,58.17
2022-10-17T07:40:55.387Z,77.63
2022-10-17T07:41:27.995Z,90.45
2022-10-17T07:42:02.693Z,68.20
2022-10-17T07:43:34.343Z,79.32
2022-10-17T07:44:07.541Z,45.97
2022-10-17T07:44:48.229Z,78.75
2022-10-17T07:45:20.555Z,79.85
2022-10-17T07:45:53.728Z,54.85
2022-10-17T07:46:28.658Z,71.40
2022-10-17T07:47:00.826Z,95.30
2022-10-17T07:47:35.954Z,45.72
2022-10-17T07:48:09.803Z,42.33
2022-10-17T07:48:43.144Z,64.25
2022-10-17T07:49:18.225Z,53.95
2022-10-17T07:49:50.379Z,62.45
2022-10-17T07:50:22.470Z,56.95
2022-10-17T07:50:57.178Z,74.32
2022-10-17T07:51:29.882Z,96.95
2022-10-17T07:52:04.552Z,96.35
2022-10-17T07:52:36.910Z,62.88
2022-10-17T07:53:11.620Z,51.17
2022-10-17T07:53:49.481Z,79.25
2022-10-17T07:54:21.644Z,55.45
2022-10-17T07:54:53.753Z,58.92
2022-10-17T07:55:28.419Z,82.18
2022-10-17T07:56:04.694Z,63.67
2022-10-17T07:56:39.455Z,74.63
2022-10-17T07:57:11.914Z,48.20